Terminal Aerodrome Forecast
Issued by NWS Charleston, SC

Home | Current Version | Previous Version | Text Only | Print | Product List | Glossary On
Versions: 1 2 3 4 5 6 7 8 9 10 11 12 13 14 15 16 17 18 19
000
FTUS42 KCHS 261700
TAFCHS
TAF
KCHS 261736Z 2618/2718 28009KT P6SM VCTS SCT040CB
     FM262100 21007KT P6SM FEW040
     FM270000 VRB03KT P6SM SKC
     FM271400 25010KT P6SM FEW035=

USA.gov is the U.S. government's official web portal to all federal, state and local government web resources and services.